Location:  
MeteoStar


Sort by weather type Sort by elevation Sort by visibility Sort from west to east north Sort from north to south Alphabetically Sort from strongest wind speed Sort from lowest to highest pressure Sort from highest to lowest dew point temperature Sort coolest temperatures to warmest Sort warm temperatures to coolest
 Metric

Current Observations for United Kingdom sorted by elevation

Cairngorm11:00ZNot Avail.27 N/A14NW 29 Gusting to 44 4084
Cairnwell11:00ZNot Avail.31 2814NW 30 Gusting to 46 163061
Great Dun Fell11:00ZNot Avail.32 3020N 27 Gusting to 34 182778
Glen Ogle11:00ZNot Avail.36 3020N 8 301850
Saint Helena Island11:00ZCloudy68 64251015.4ESE 17 681427
Lake Vyrnwy11:00ZNot Avail.42 37201025.5N 12 Gusting to 26 351181
Liscombe11:00ZNot Avail.43 39151025.1NNW 17 Gusting to 25 351141
Spadeadam10:50ZClear43 37121022.8NW 15 361066
Sennybridge11:00ZNot Avail.44 37201025.8N 4 Gusting to 15 421007
Spadeadam11:00ZNot Avail.43 37251023.9NW 15 36935
Loch Glascanoch11:00ZNot Avail.42 3891025.5WNW 14 35869
Bingley11:00ZNot Avail.43 37251023.2NNW 15 36859
Fylingdales11:00ZNot Avail.40 3925NNW 20 Gusting to 29 30859
Shap11:00ZNot Avail.43 36251024.5NNW 14 36816
Drumalbin11:00ZNot Avail.43 37201025.0NNW 7 39803
Eskdalemuir11:00ZClear45 33251024.8NNW 12 39793
Tulloch Bridge11:00ZNot Avail.41 36151026.6WNW 2 41777
Warcop Range11:00ZNot Avail.41 38201024.0NNW 12 34744
Lough Fea11:00ZNot Avail.44 3881028.3NNW 9 39738
Aviemore11:00ZNot Avail.44 36141024.6N 3 44721
Capel Curig11:00ZNot Avail.44 36191026.5ENE 8 Gusting to 18 39708
Little Rissington11:00ZNot Avail.45 38201022.5N 18 Gusting to 30 37705
Redesdale11:00ZNot Avail.44 37251023.9NW 7 40692
Leeds And Bradford10:50ZClear45 36131022.5NW 15 38682
High Wicombe Hqstc11:00ZNot Avail.43 39121021.5N 9 Gusting to 21 38669
Cardinham11:00ZNot Avail.46 41121025.6N 17 Gusting to 29 39656
Bristol / Lulsgate 10:50ZPartly Cloudy45 36121024.4NNW 12 39620
Biggin Hill 10:50ZLight Rain45 4341019.4N 16 38600
Kenley11:00ZRain44 4281020.2N 12 38557
Glenanne11:00ZNot Avail.44 38141027.9N 10 39528
Luton Airport 10:50ZCloudy45 41121020.3N 17 38524
Ballypatrick Forest11:00ZNot Avail.45 4171028NNW 10 40511
Lyneham11:00ZNot Avail.46 37101023.2N 15 Gusting to 28 40475
Aboyne11:00ZNot Avail.42 37131024WNW 11 36459
Inverbervie11:00ZNot Avail.44 38121023.2NW 18 Gusting to 27 36439
Aberporth11:00ZClear44 3971026.6N 16 Gusting to 27 37436
Larkhill11:00ZMostly Cloudy46 35251022.7N 11 41433
Saint Bees Head11:00ZNot Avail.44 40151025.1N 9 39406
Boscombe Down10:50ZMostly Cloudy48 36201022.3NNW 23 40406
Odiham10:50ZMostly Cloudy46 37201021.3N 15 Gusting to 27 40403
Langdon Bay11:00ZNot Avail.40 N/A81018.9S 2 383
Nottingham Weather Centre11:00ZNot Avail.47 37351022.7N 12 Gusting to 22 42383
Dundrennan11:00ZNot Avail.46 38141024.8N 11 41374
Charterhall11:00ZNot Avail.45 36251023.5NW 12 Gusting to 22 39367
Barkston Heath Royal Air Force Base 10:50ZPartly CloudyN/A N/A25NNW 17 367
Cranfield10:50ZMostly Cloudy46 391.871021.3N 15 40364
Church Lawford11:00ZNot Avail.45 39111022.7NNW 12 39351
Stansted Airport10:50ZDrizzle43 431.871020.3NNW 10 37347
Guernsey Airport10:50ZMostly Cloudy48 43201022.2N 16 42334
Shobdon11:00ZNot Avail.47 36131025.0NNW 9 43324
Birmingham / Airport10:50ZPartly Cloudy45 39101023.3NNW 18 37324
Aberdaron11:00ZNot Avail.45 39131027.3N 21 Gusting to 31 37311
East Midlands10:50ZMostly Cloudy46 37121022.3NNW 15 40308
Middle Wallop10:50ZMostly Cloudy48 36181022.2NNW 14 42298
Brize Norton10:50ZMostly Cloudy46 37201022.2N 17 39288
Camborne11:00ZClear47 3871026.4N 21 Gusting to 32 39285
Fairford Royal Air Force Base10:56ZClear47 3791022.7N 13 Gusting to 22 41285
Wattisham10:50ZLight Rain43 4391019.3N 14 36285
Bedford11:00ZNot Avail.45 38201021.5N 20 Gusting to 29 37278
Wittering10:50ZMostly Cloudy46 39251020.2NNW 16 39275
Jersey Airport10:50ZMostly Cloudy48 4541022.2N 12 43275
Cosford Royal Air Force Base10:50ZMostly Cloudy46 39181024.3NNW 13 Gusting to 23 40272
Lerwick11:00ZCloudy43 42111020.5WSW 9 38269
Keswick11:00ZNot Avail.46 39131025.4NW 5 44265
Altnaharra11:00ZNot Avail.46 39111024.3W 7 42265
Newcastle 10:50ZClear45 36121022.3NNW 14 39265
Belfast / Aldergrove Airport10:50ZNot Avail.45 41101028.3NW 6 42265
Culdrose10:50ZPartly Cloudy46 39111026.2NNE 16 Gusting to 29 39255
Shawbury10:50ZPartly Cloudy46 39121024.2NNW 19 39249
Alderney / Channel Island10:50ZPartly Cloudy46 N/A141021.2NNW 19 232
Manchester Airport10:50ZMostly Cloudy46 39101024.2NW 12 40226
Waddington10:50ZPartly Cloudy45 37251021.2NNW 14 39223
Cranwell10:50ZClear45 37251021.2NNW 18 37219
Cardiff-Wales Airport10:50ZClear48 39121025.2N 16 42219
Aberdeen / Dyce10:50ZClear45 39111023.3NW 16 38213
Farnborough10:50ZPartly Cloudy48 41201021.2NNW 14 42213
Portglenone11:00ZNot Avail.46 4171027.5W 3 46209
Trawscoed11:00ZNot Avail.46 3991026NNW 11 41206
Benson10:50ZMostly Cloudy48 37201022.2NNW 14 42206
London / Gatwick Airport10:50ZLight Rain46 4541019.2NW 13 40203
Fair Isle10:50ZNot Avail.46 4371021.0WNW 9 41187
Manston11:00ZLight Drizzle42 4211018.9S 3 42180
Isle Of Portland11:00ZNot Avail.48 39111022.7NNW 25 Gusting to 33 40173
Castlederg11:00ZNot Avail.47 3891028.9NW 3 47167
Plymouth11:00ZNot Avail.47 3871024.9N 16 Gusting to 29 41164
Milford Haven11:00ZNot Avail.48 38151027N 13 43144
Edinburgh Airport10:50ZClear46 37111025.2W 6 43134
Leeming10:50ZClear48 37251022.2NNW 15 42131
Wick10:50ZClear46 4391022.2NW 13 40127
Northolt10:50ZMostly Cloudy46 39151020.2N 14 40124
Tees-Side10:50ZClear46 37121022.2NNW 15 40121
Mumbles11:00ZNot Avail.47 37151026.6N 11 Gusting to 21 42114
Strathallan11:00ZNot Avail.48 36201024.9WNW 4 47114
Pershore11:00ZNot Avail.47 39121024NNW 16 Gusting to 25 41104
Humberside10:50ZMostly Cloudy46 391.51021.2NNW 16 39101
Scilly; Saint MaryS10:50ZClear48 41111028.2N 14 42101
Exeter Airport10:50ZClear48 371.871024.2NNW 12 4398
Staverton Private 10:50ZPartly Cloudy48 39101023.2NNE 10 4495
Carlisle11:00ZNot Avail.47 39251024.9N 4791
Topcliffe Royal Air Force Base 10:50ZMostly Cloudy48 39251022.2NNW 17 4291
Prestwick Rnas11:00ZNot Avail.46 40171025.6WNW 9 4185
Carlisle10:50ZClear45 391.51024.2WNW 6 4285
Liverpool Airport 10:50ZPartly Cloudy48 41121024.2NNW 15 4285
London / Heathrow Airport10:50ZClear48 43181021.1NNW 10 4478
Marham10:50ZPartly Cloudy45 3991020.2N 19 3775
Boulmer10:50ZMostly Cloudy46 37251022.2NW 14 4075
Yeovilton10:50ZPartly Cloudy48 36121023.2NNW 19 4175
Scatsa / Shetland Island10:50ZShowers nearby45 41111020.2SW 7 4172
Weybourne11:00ZClear42 4271019.4NNW 20 Gusting to 25 3368
Kirkwall Airport10:50ZClear46 4371022.2WNW 11 4168
Prestwick Airport10:50ZClear46 39111026.2WNW 10 4165
Isle Of Man / Ronaldsway Airport10:50ZClear48 41121026.1NNW 18 4155
Saint Catherines Point11:00ZNot Avail.48 39111020.7NW 17 Gusting to 33 4252
Linton-On-Ouse10:50ZPartly Cloudy46 39201022.1NNW 13 4052
Bridlington Mrsc11:00ZNot Avail.43 41251019.9NNW 19 Gusting to 31 3549
Baltasound11:00ZNot Avail.43 42171020.0S 11 3749
Cambridge10:50ZLight Rain43 4341020.1N 11 3749
Walney Island11:00ZNot Avail.45 41131025NW 12 3949
Southend-On-Sea 10:50ZLight Drizzle45 431.51018.1W 3 4549
Norwich Weather Centre10:50ZMostly Cloudy43 4341019.1NNW 10 3745
Lossiemouth10:50ZClear45 41121024.1W 11 3942
Machrihanish11:00ZNot Avail.47 4371026.6NW 12 4242
Leuchars10:50ZClear46 3771024.1NW 8 4239
Tiree10:50ZClear46 4171027.1NW 9 4139
Aultbea11:00ZNot Avail.46 3981025.6W 8 4236
West Freugh11:00ZNot Avail.46 4181026.8NW 10 4136
Bournemouth Airport10:50ZClear48 37141022.1N 18 4136
South Uist Range11:00ZHaze46 4131026.6NW 7 4232
Mildenhall Royal Air Force Base10:49ZCloudy45 4511020N 16 Gusting to 23 3832
Lakenheath Royal Air Force Base10:56ZCloudy44 4471019.5N 10 Gusting to 21 3932
Hawarden10:50ZPartly Cloudy46 4181025.1NW 20 3832
Blackpool Airport10:50ZClear45 411.51025.1WNW 12 3932
Stornoway10:50ZClear46 3981025.1W 12 4029
Inverness / Dalcross10:50ZClear46 41111025.1SSW 9 4129
Southampton / Weather Centre10:50ZPartly Cloudy48 37141022.1N 13 Gusting to 26 4329
Eglinton / Londonderr10:50ZMostly Cloudy46 41101028.1NW 6 4329
Donna Nook11:00ZNot Avail.44 40201020.7NNW 20 Gusting to 31 3626
Crosby11:00ZNot Avail.45 4281025.0NW 18 3726
Glasgow Airport10:50ZClear46 39111025.1WNW 9 4126
Chivenor11:00ZNot Avail.47 40101026.1N 15 Gusting to 25 4126
Coningsby Royal Air Force Base10:50ZLight Showers45 39151021.1NNW 13 3922
Leconfield10:50ZMostly Cloudy45 39201020.1NNW 12 Gusting to 22 3919
Benbecula10:50ZClear45 41111026.1WNW 5 4219
Sumburgh Cape 10:50ZClear45 4371021.1W 6 4216
London City Airport10:50ZLight Rain46 4341020.1NW 11 4116
Belfast / Harbour10:50ZClear46 41101027.1NNW 10 4116
Thorney Island11:00ZClear49 40151021N 14 4413
Tain Range10:50ZClear45 N/A101024.1W 11 13
Dundee / Riverside10:50ZClear48 39111024.1NW 8 4413
Gravesend-Broadness11:00ZNot Avail.46 4481019.4NW 13 409
Wainfleet11:00ZNot Avail.45 40251020.4N 23 Gusting to 33 369
Holbeach10:50ZMostly Cloudy45 39251020.1N 22 379
Pembrey Sands10:50ZClear48 39131026.1N 21 419
Lydd Airport 10:50ZMist45 451.51019.1N 1 459
Shoeburyness11:00ZLight Drizzle44 441.251019.0NW 2 446
Shoreham Airport10:50ZLight Rain46 4541019.1NNW 13 406
Valley10:50ZNot Avail.46 39121026.1NNW 16 393


Atlantic
Tropical Watch